Nearby METAR Reports



KADS - Dallas/Addison, Texas, USA
Distance from station: SSW 10mi, 16km
Updated: Wed, 19-Feb-2020 1:55am CST
Overcast
Overcast
 Wind from NNE
Wind: NNE 7 mph , 11 km/h
Temperature: 46°F , 8°C
Wind Chill: 42°F , 6°C
Dew Point: 36°F , 2°C
Humidity: 66%
Barometer: 30.32 inHg , 1026.8 hPa
Clouds: Overcast
Visibility: 10 miles , 16 km
Cloud details: Overcast 7500 ft
2020/02/19 07:55 KADS 190755Z AUTO 02006KT 10SM OVC075 08/02 A3032 RMK AO2 T00760020
KTKI - Mckinney, Texas, USA
Distance from station: ENE 11mi, 18km
Updated: Wed, 19-Feb-2020 1:53am CST
Overcast
Overcast
 Wind from NNE
Wind: NNE 10 mph , 17 km/h
Temperature: 45°F , 7°C
Wind Chill: 40°F , 4°C
Dew Point: 36°F , 2°C
Humidity: 71%
Barometer: 30.30 inHg , 1026.1 hPa
Clouds: Overcast
Visibility: 10 miles , 16 km
Cloud details: Overcast 7500 ft
2020/02/19 07:53 KTKI 190753Z AUTO 02009KT 10SM OVC075 07/02 A3030 RMK AO2 SLP270 T00720022
 
KDAL - Dallas/Love Fld, Texas, USA
Distance from station: SSW 18mi, 30km
Updated: Wed, 19-Feb-2020 1:53am CST
Overcast
Overcast
 Wind from NNE
Wind: NNE 8 mph , 13 km/h
Temperature: 48°F , 9°C
Wind Chill: 44°F , 7°C
Dew Point: 37°F , 3°C
Humidity: 66%
Barometer: 30.30 inHg , 1026.1 hPa
Clouds: Overcast
Visibility: 10 miles , 16 km
Cloud details: Mostly cloudy 7000 ft
Overcast 25000 ft
2020/02/19 07:53 KDAL 190753Z 02007KT 350V050 10SM BKN070 OVC250 09/03 A3030 RMK AO2 SLP259 T00890028
KDFW - Dallas/Ft Worth, Texas, USA
Distance from station: SW 21mi, 34km
Updated: Wed, 19-Feb-2020 1:53am CST
Overcast
Overcast
 Wind from NNE
Wind: NNE 12 mph , 19 km/h
Temperature: 46°F , 8°C
Wind Chill: 40°F , 4°C
Dew Point: 37°F , 3°C
Humidity: 71%
Barometer: 30.29 inHg , 1025.7 hPa
Clouds: Overcast
Visibility: 10 miles , 16 km
Cloud details: Mostly cloudy 7000 ft
Overcast 25000 ft
2020/02/19 07:53 KDFW 190753Z 02010KT 10SM BKN070 OVC250 08/03 A3029 RMK AO2 SLP255 T00780028 $
 
KF46 - Rockwall, Texas, USA
Distance from station: ESE 22mi, 35km
Updated: Wed, 19-Feb-2020 1:55am CST
Overcast
Overcast
 Wind from NE
Wind: NE 12 mph , 19 km/h, Gust: 17 mph , 28 km/h
Temperature: 46°F , 8°C
Wind Chill: 40°F , 4°C
Dew Point: 37°F , 3°C
Humidity: 71%
Barometer: 30.29 inHg , 1025.7 hPa
Clouds: Overcast
Visibility: 10 miles , 16 km
Cloud details: Overcast 7000 ft
2020/02/19 07:55 KF46 190755Z AUTO 04010G15KT 10SM OVC070 08/03 A3029 RMK AO2 T00760034
KDTO - Denton, Texas, USA
Distance from station: WNW 27mi, 43km
Updated: Wed, 19-Feb-2020 1:53am CST
Overcast
Overcast
 Wind from NNE
Wind: NNE 10 mph , 17 km/h
Temperature: 43°F , 6°C
Wind Chill: 37°F , 3°C
Dew Point: 34°F , 1°C
Humidity: 71%
Barometer: 30.32 inHg , 1026.8 hPa
Clouds: Overcast
Visibility: 10 miles , 16 km
Cloud details: Overcast 8000 ft
2020/02/19 07:53 KDTO 190753Z AUTO 02009KT 10SM OVC080 06/01 A3032 RMK AO2 SLP267 T00610006
 
KHQZ - Mesquite, Texas, USA
Distance from station: SSE 28mi, 44km
Updated: Wed, 19-Feb-2020 1:55am CST
Overcast
Overcast
 Wind from N
Wind: N 9 mph , 15 km/h, Gust: 16 mph , 26 km/h
Temperature: 46°F , 8°C
Wind Chill: 41°F , 5°C
Dew Point: 39°F , 4°C
Humidity: 76%
Barometer: 30.29 inHg , 1025.7 hPa
Clouds: Overcast
Visibility: 10 miles , 16 km
Cloud details: Overcast 7000 ft
2020/02/19 07:55 KHQZ 190755Z AUTO 01008G14KT 10SM OVC070 08/04 A3029 RMK AO1 T00820036
KRBD - Dallas/Redbird, Texas, USA
Distance from station: SSW 30mi, 48km
Updated: Wed, 19-Feb-2020 1:53am CST
Overcast
Overcast
 Wind from NNE
Wind: NNE 12 mph , 19 km/h
Temperature: 48°F , 9°C
Wind Chill: 43°F , 6°C
Dew Point: 37°F , 3°C
Humidity: 66%
Barometer: 30.28 inHg , 1025.4 hPa
Clouds: Overcast
Visibility: 10 miles , 16 km
Cloud details: Overcast 6500 ft
2020/02/19 07:53 KRBD 190753Z AUTO 03010KT 10SM OVC065 09/03 A3028 RMK AO2 SLP254 T00940028
 
KGPM - Grand Prairie, Texas, USA
Distance from station: SSW 33mi, 53km
Updated: Wed, 19-Feb-2020 1:55am CST
Overcast
Overcast
 Wind from N
Wind: N 15 mph , 24 km/h
Temperature: 48°F , 9°C
Wind Chill: 42°F , 6°C
Dew Point: 37°F , 3°C
Humidity: 66%
Barometer: 30.31 inHg , 1026.4 hPa
Clouds: Overcast
Visibility: 10 miles , 16 km
Cloud details: Overcast 6500 ft
2020/02/19 07:55 KGPM 190755Z AUTO 36013KT 10SM OVC065 09/03 A3031 RMK AO2 T00870026
KAFW - Ft Worth/Allianc, Texas, USA
Distance from station: WSW 34mi, 55km
Updated: Wed, 19-Feb-2020 1:53am CST
Overcast
Overcast
 Wind from N
Wind: N 13 mph , 20 km/h
Temperature: 46°F , 8°C
Wind Chill: 40°F , 4°C
Dew Point: 34°F , 1°C
Humidity: 62%
Barometer: 30.31 inHg , 1026.4 hPa
Clouds: Overcast
Visibility: 10 miles , 16 km
Cloud details: Mostly cloudy 7000 ft
Overcast 25000 ft
2020/02/19 07:53 KAFW 190753Z 01011KT 10SM BKN070 OVC250 08/01 A3031 RMK AO2 SLP266 T00780011
 
KLNC - Lancaster, Texas, USA
Distance from station: S 36mi, 58km
Updated: Wed, 19-Feb-2020 1:55am CST
Partly cloudy
Partly cloudy
 Wind from NNE
Wind: NNE 7 mph , 11 km/h
Temperature: 48°F , 9°C
Wind Chill: 45°F , 7°C
Dew Point: 39°F , 4°C
Humidity: 71%
Barometer: 30.30 inHg , 1026.1 hPa
Clouds: Partly cloudy
Visibility: 10 miles , 16 km
Cloud details: Partly cloudy 6000 ft
Partly cloudy 8000 ft
2020/02/19 07:55 KLNC 190755Z AUTO 02006KT 10SM SCT060 SCT080 09/04 A3030 RMK AO2 T00850039
KGKY - Arlington, Texas, USA
Distance from station: SSW 36mi, 59km
Updated: Wed, 19-Feb-2020 1:53am CST
Overcast
Overcast
 Wind from N
Wind: N 10 mph , 17 km/h
Temperature: 50°F , 10°C
Wind Chill: 46°F , 8°C
Dew Point: 37°F , 3°C
Humidity: 62%
Barometer: 30.29 inHg , 1025.7 hPa
Clouds: Overcast
Visibility: 10 miles , 16 km
Cloud details: Overcast 6500 ft
2020/02/19 07:53 KGKY 190753Z AUTO 36009KT 10SM OVC065 10/03 A3029 RMK AO2 SLP255 T01000028
 
KTRL - Terrell, Texas, USA
Distance from station: SE 39mi, 63km
Updated: Wed, 19-Feb-2020 1:53am CST
Overcast
Overcast
 Wind from NNE
Wind: NNE 12 mph , 19 km/h
Temperature: 48°F , 9°C
Wind Chill: 43°F , 6°C
Dew Point: 39°F , 4°C
Humidity: 71%
Barometer: 30.28 inHg , 1025.4 hPa
Clouds: Overcast
Visibility: 10 miles , 16 km
Cloud details: Overcast 6500 ft
2020/02/19 07:53 KTRL 190753Z AUTO 03010KT 10SM OVC065 09/04 A3028 RMK AO2 SLP254 T00890044
KGVT - Greenville/Major, Texas, USA
Distance from station: E 40mi, 64km
Updated: Wed, 19-Feb-2020 1:50am CST
Overcast
Overcast
 Wind from NNE
Wind: NNE 10 mph , 17 km/h
Temperature: 48°F , 9°C
Wind Chill: 44°F , 7°C
Dew Point: 41°F , 5°C
Humidity: 76%
Barometer: 30.30 inHg , 1026.1 hPa
Clouds: Overcast
Visibility: 10 miles , 16 km
Cloud details: Overcast 7000 ft
2020/02/19 07:50 KGVT 190750Z AUTO 02009KT 10SM OVC070 09/05 A3030 RMK AO2
 
KFTW - Fort Worth, Texas, USA
Distance from station: WSW 40mi, 65km
Updated: Wed, 19-Feb-2020 1:53am CST
Overcast
Overcast
 Wind from N
Wind: N 16 mph , 26 km/h
Temperature: 45°F , 7°C
Wind Chill: 38°F , 3°C
Dew Point: 36°F , 2°C
Humidity: 71%
Barometer: 30.30 inHg , 1026.1 hPa
Clouds: Overcast
Visibility: 10 miles , 16 km
Cloud details: Overcast 6500 ft
2020/02/19 07:53 KFTW 190753Z 01014KT 10SM OVC065 07/02 A3030 RMK AO2 SLP262 T00720017
KGYI - Sherman/Denison, Texas, USA
Distance from station: N 43mi, 69km
Updated: Wed, 19-Feb-2020 1:55am CST
Clear
Clear
 Wind from NNE
Wind: NNE 6 mph , 9 km/h
Temperature: 41°F , 5°C
Wind Chill: 37°F , 3°C
Dew Point: 32°F , 0°C
Humidity: 70%
Barometer: 30.35 inHg , 1027.8 hPa
Clouds: Clear
Visibility: 10 miles , 16 km
2020/02/19 07:55 KGYI 190755Z AUTO 02005KT 10SM CLR 05/00 A3035 RMK AO2 T00470000
 
KNFW - Fort Worth Nas, Texas, USA
Distance from station: WSW 45mi, 73km
Updated: Wed, 19-Feb-2020 1:52am CST
Overcast
Overcast
 Wind from NNE
Wind: NNE 12 mph , 19 km/h
Temperature: 55°F , 13°C
Dew Point: 36°F , 2°C
Humidity: 47%
Barometer: 30.31 inHg , 1026.4 hPa
Clouds: Overcast
Cloud details: Mostly cloudy 3700 ft
Overcast 6500 ft
2020/02/19 07:52 KNFW 190752Z AUTO 03010KT BKN037 OVC065 13/02 A3031 RMK AO2 SLP246 T01280022 VISNO N $
KGLE - Gainesville, Texas, USA
Distance from station: NW 46mi, 74km
Updated: Wed, 19-Feb-2020 1:55am CST
Clear
Clear
 Wind from NNE
Wind: NNE 7 mph , 11 km/h
Temperature: 39°F , 4°C
Wind Chill: 34°F , 1°C
Dew Point: 30°F , -1°C
Humidity: 70%
Barometer: 30.36 inHg , 1028.1 hPa
Clouds: Clear
Visibility: 10 miles , 16 km
2020/02/19 07:55 KGLE 190755Z AUTO 02006KT 10SM CLR 04/M01 A3036 RMK AO2 T00351013
 
KJWY - Midlothian/Wax, Texas, USA
Distance from station: SSW 46mi, 74km
Updated: Sat, 25-Jan-2020 1:15pm CST
NOT Current
Partly cloudy
Partly cloudy
 Wind from S
Wind: S 15 mph , 24 km/h, Gust: 25 mph , 41 km/h
Temperature: 63°F , 17°C
Dew Point: 41°F , 5°C
Humidity: 45%
Barometer: 30.05 inHg , 1017.6 hPa
Clouds: Partly cloudy
Visibility: 10 miles , 16 km
Cloud details: Partly cloudy 5500 ft
2020/01/25 19:15 KJWY 251915Z AUTO 18013G22KT 10SM SCT055 17/05 A3005 RMK AO2 T01690045
KFWS - Fort Worth/88d, Texas, USA
Distance from station: SW 49mi, 79km
Updated: Wed, 19-Feb-2020 1:55am CST
Overcast
Overcast
 Wind from N
Wind: N 10 mph , 17 km/h, Gust: 16 mph , 26 km/h
Temperature: 48°F , 9°C
Wind Chill: 44°F , 7°C
Dew Point: 39°F , 4°C
Humidity: 71%
Barometer: 30.31 inHg , 1026.4 hPa
Clouds: Overcast
Visibility: 10 miles , 16 km
Cloud details: Partly cloudy 3300 ft
Overcast 6000 ft
2020/02/19 07:55 KFWS 190755Z AUTO 36009G14KT 10SM SCT033 OVC060 09/04 A3031 RMK AO2 T00870036 PWINO